createdAt,value
2023-01-06T00:00:22.442Z,11.80
2023-01-06T00:00:35.213Z,11.90
2023-01-06T00:00:47.578Z,11.80
2023-01-06T00:01:09.019Z,11.90
2023-01-06T00:01:20.895Z,11.90
2023-01-06T00:01:33.581Z,11.90
2023-01-06T00:01:47.251Z,11.90
2023-01-06T00:02:01.432Z,11.90
2023-01-06T00:02:13.191Z,11.90
2023-01-06T00:02:25.155Z,11.90
2023-01-06T00:02:36.914Z,11.90
2023-01-06T00:02:48.647Z,11.80
2023-01-06T00:03:00.445Z,11.90
2023-01-06T00:03:12.187Z,11.80
2023-01-06T00:03:23.867Z,11.80
2023-01-06T00:03:35.784Z,11.90
2023-01-06T00:03:51.629Z,11.80
2023-01-06T00:04:03.931Z,11.90
2023-01-06T00:04:15.849Z,11.80
2023-01-06T00:04:28.161Z,11.80
2023-01-06T00:04:40.060Z,11.80
2023-01-06T00:04:51.928Z,11.80
2023-01-06T00:05:03.856Z,11.90
2023-01-06T00:05:15.647Z,11.80
2023-01-06T00:05:29.234Z,11.90
2023-01-06T00:05:41.384Z,11.80
2023-01-06T00:05:57.940Z,11.80
2023-01-06T00:06:10.850Z,11.80
2023-01-06T00:06:27.660Z,11.80
2023-01-06T00:06:39.603Z,11.80
2023-01-06T00:06:51.348Z,11.80
2023-01-06T00:07:03.275Z,11.80
2023-01-06T00:07:15.046Z,11.80
2023-01-06T00:07:26.779Z,11.80
2023-01-06T00:07:39.271Z,11.80
2023-01-06T00:07:51.675Z,11.80
2023-01-06T00:08:03.591Z,11.80
2023-01-06T00:08:15.313Z,11.80
2023-01-06T00:08:27.050Z,11.80
2023-01-06T00:08:38.878Z,11.80
2023-01-06T00:08:50.658Z,11.80
2023-01-06T00:09:03.834Z,11.80
2023-01-06T00:09:15.698Z,11.80
2023-01-06T00:09:27.500Z,11.80
2023-01-06T00:09:39.322Z,11.80
2023-01-06T00:09:51.045Z,11.80
2023-01-06T00:10:02.850Z,11.80
2023-01-06T00:10:14.690Z,11.80
2023-01-06T00:10:26.784Z,11.80
2023-01-06T00:10:38.512Z,11.80
2023-01-06T00:10:50.345Z,11.80
2023-01-06T00:11:12.004Z,11.80
2023-01-06T00:11:23.942Z,11.80
2023-01-06T00:11:35.749Z,11.80
2023-01-06T00:11:47.515Z,11.80
2023-01-06T00:11:59.301Z,11.80
2023-01-06T00:12:11.033Z,11.80
2023-01-06T00:12:22.776Z,11.80
2023-01-06T00:12:34.582Z,11.80
2023-01-06T00:12:47.030Z,11.80
2023-01-06T00:12:58.798Z,11.80
2023-01-06T00:13:10.575Z,11.80
2023-01-06T00:13:22.667Z,11.80
2023-01-06T00:13:34.543Z,11.80
2023-01-06T00:13:46.337Z,11.80
2023-01-06T00:13:59.338Z,11.80
2023-01-06T00:14:11.132Z,11.80
2023-01-06T00:14:22.934Z,11.80
2023-01-06T00:14:34.674Z,11.80
2023-01-06T00:14:47.549Z,11.80
2023-01-06T00:14:59.365Z,11.80
2023-01-06T00:15:11.375Z,11.80
2023-01-06T00:15:23.151Z,11.80
2023-01-06T00:15:37.443Z,11.80
2023-01-06T00:15:49.514Z,11.80
2023-01-06T00:16:06.615Z,11.80
2023-01-06T00:16:19.671Z,11.80
2023-01-06T00:16:31.488Z,11.80
2023-01-06T00:16:43.239Z,11.80
2023-01-06T00:16:55.088Z,11.80
2023-01-06T00:17:06.844Z,11.80
2023-01-06T00:17:18.720Z,11.80
2023-01-06T00:17:30.860Z,11.80
2023-01-06T00:17:42.872Z,11.80
2023-01-06T00:17:54.573Z,11.80
2023-01-06T00:18:06.340Z,11.80
2023-01-06T00:18:18.158Z,11.80
2023-01-06T00:18:29.938Z,11.80
2023-01-06T00:18:41.914Z,11.80
2023-01-06T00:18:58.162Z,11.80
2023-01-06T00:19:10.726Z,11.80
2023-01-06T00:19:22.511Z,11.80
2023-01-06T00:19:34.295Z,11.80
2023-01-06T00:19:46.046Z,11.80
2023-01-06T00:19:58.406Z,11.80
2023-01-06T00:20:11.185Z,11.80
2023-01-06T00:20:22.986Z,11.80
2023-01-06T00:20:34.779Z,11.80
2023-01-06T00:20:46.528Z,11.80
2023-01-06T00:20:59.431Z,11.80
2023-01-06T00:21:11.770Z,11.80
2023-01-06T00:21:23.693Z,11.80
2023-01-06T00:21:35.442Z,11.80
2023-01-06T00:21:47.170Z,11.80
2023-01-06T00:21:58.895Z,11.80
2023-01-06T00:22:10.589Z,11.80
2023-01-06T00:22:22.332Z,11.80
2023-01-06T00:22:34.098Z,11.80
2023-01-06T00:22:45.801Z,11.80
2023-01-06T00:22:59.017Z,11.80
2023-01-06T00:23:10.822Z,11.80
2023-01-06T00:23:22.626Z,11.80
2023-01-06T00:23:34.822Z,11.80
2023-01-06T00:23:46.534Z,11.80
2023-01-06T00:23:58.315Z,11.80
2023-01-06T00:24:10.089Z,11.80
2023-01-06T00:24:21.838Z,11.80
2023-01-06T00:24:33.675Z,11.80
2023-01-06T00:24:46.529Z,11.80
2023-01-06T00:24:58.344Z,11.80
2023-01-06T00:25:10.481Z,11.80
2023-01-06T00:25:23.406Z,11.80
2023-01-06T00:25:35.147Z,11.80
2023-01-06T00:25:50.667Z,11.80
2023-01-06T00:26:02.987Z,11.80
2023-01-06T00:26:14.871Z,11.80
2023-01-06T00:26:26.738Z,11.80
2023-01-06T00:26:38.745Z,11.90
2023-01-06T00:26:50.515Z,11.80
2023-01-06T00:27:02.281Z,11.80
2023-01-06T00:27:14.011Z,11.90
2023-01-06T00:27:25.782Z,11.90
2023-01-06T00:27:38.574Z,11.90
2023-01-06T00:27:50.315Z,11.90
2023-01-06T00:28:02.108Z,11.90
2023-01-06T00:28:13.865Z,11.90
2023-01-06T00:28:25.660Z,11.80
2023-01-06T00:28:37.539Z,11.90
2023-01-06T00:28:52.673Z,11.90
2023-01-06T00:29:04.419Z,11.80
2023-01-06T00:29:16.216Z,11.80
2023-01-06T00:29:28.342Z,11.80
2023-01-06T00:29:40.131Z,11.80
2023-01-06T00:29:51.943Z,11.80
2023-01-06T00:30:04.203Z,11.80
2023-01-06T00:30:16.113Z,11.80
2023-01-06T00:30:27.896Z,11.90
2023-01-06T00:30:39.637Z,11.80
2023-01-06T00:30:51.515Z,11.80
2023-01-06T00:31:10.736Z,11.90
2023-01-06T00:31:22.833Z,11.80
2023-01-06T00:31:34.620Z,11.90
2023-01-06T00:31:46.420Z,11.90
2023-01-06T00:32:01.510Z,11.90
2023-01-06T00:32:13.341Z,11.80
2023-01-06T00:32:25.127Z,11.90
2023-01-06T00:32:36.943Z,11.80
2023-01-06T00:32:48.710Z,11.80
2023-01-06T00:33:00.529Z,11.80
2023-01-06T00:33:12.319Z,11.80
2023-01-06T00:33:24.359Z,11.80
2023-01-06T00:33:36.392Z,11.90
2023-01-06T00:33:48.211Z,11.90
2023-01-06T00:33:59.979Z,11.90
2023-01-06T00:34:11.984Z,11.90
2023-01-06T00:34:23.779Z,11.90
2023-01-06T00:34:35.483Z,11.90
2023-01-06T00:34:47.222Z,11.90
2023-01-06T00:34:59.014Z,11.90
2023-01-06T00:35:10.804Z,11.90
2023-01-06T00:35:22.599Z,11.90
2023-01-06T00:35:34.343Z,11.90
2023-01-06T00:35:46.128Z,11.90
2023-01-06T00:36:00.782Z,12.00
2023-01-06T00:36:13.069Z,11.90
2023-01-06T00:36:24.901Z,12.00
2023-01-06T00:36:36.755Z,12.00
2023-01-06T00:36:48.556Z,11.90
2023-01-06T00:37:00.311Z,12.00
2023-01-06T00:37:12.048Z,11.90
2023-01-06T00:37:23.783Z,11.90
2023-01-06T00:37:35.674Z,11.90
2023-01-06T00:37:47.621Z,11.90
2023-01-06T00:37:59.494Z,11.90
2023-01-06T00:38:11.363Z,11.80
2023-01-06T00:38:23.087Z,11.90
2023-01-06T00:38:38.066Z,11.80
2023-01-06T00:38:50.234Z,11.80
2023-01-06T00:39:02.029Z,11.80
2023-01-06T00:39:13.940Z,11.80
2023-01-06T00:39:25.700Z,11.80
2023-01-06T00:39:37.477Z,11.80
2023-01-06T00:39:49.257Z,11.90
2023-01-06T00:40:00.989Z,11.80
2023-01-06T00:40:12.711Z,11.90
2023-01-06T00:40:24.435Z,11.90
2023-01-06T00:40:37.201Z,11.90
2023-01-06T00:40:48.956Z,11.90
2023-01-06T00:41:02.696Z,11.90
2023-01-06T00:41:33.207Z,11.90
2023-01-06T00:42:03.598Z,11.90
2023-01-06T00:42:15.448Z,11.90
2023-01-06T00:42:27.121Z,11.90
2023-01-06T00:42:39.034Z,11.90
2023-01-06T00:42:50.792Z,11.80
2023-01-06T00:43:02.546Z,11.90
2023-01-06T00:43:14.259Z,11.80
2023-01-06T00:43:27.640Z,11.90
2023-01-06T00:43:39.380Z,11.90
2023-01-06T00:43:51.168Z,11.80
2023-01-06T00:44:02.897Z,11.90
2023-01-06T00:44:14.660Z,11.90
2023-01-06T00:44:26.421Z,11.90
2023-01-06T00:44:39.037Z,11.90
2023-01-06T00:44:50.844Z,11.90
2023-01-06T00:45:02.680Z,11.90
2023-01-06T00:45:15.195Z,11.90
2023-01-06T00:45:26.983Z,11.90
2023-01-06T00:45:38.814Z,11.80
2023-01-06T00:45:50.711Z,11.80
2023-01-06T00:46:02.668Z,11.80
2023-01-06T00:46:14.381Z,11.80
2023-01-06T00:46:29.364Z,11.80
2023-01-06T00:46:41.518Z,11.80
2023-01-06T00:46:53.293Z,11.80
2023-01-06T00:47:06.819Z,11.80
2023-01-06T00:47:18.930Z,11.80
2023-01-06T00:47:30.747Z,11.70
2023-01-06T00:47:42.473Z,11.70
2023-01-06T00:47:54.189Z,11.70
2023-01-06T00:48:06.156Z,11.70
2023-01-06T00:48:17.921Z,11.70
2023-01-06T00:48:29.700Z,11.70
2023-01-06T00:48:46.876Z,11.70
2023-01-06T00:49:06.652Z,11.70
2023-01-06T00:49:19.018Z,11.70
2023-01-06T00:49:30.893Z,11.70
2023-01-06T00:49:42.679Z,11.70
2023-01-06T00:49:54.399Z,11.70
2023-01-06T00:50:06.682Z,11.70
2023-01-06T00:50:18.391Z,11.70
2023-01-06T00:50:30.172Z,11.70
2023-01-06T00:50:41.954Z,11.60
2023-01-06T00:51:00.443Z,11.70
2023-01-06T00:51:12.197Z,11.70
2023-01-06T00:51:23.956Z,11.60
2023-01-06T00:51:38.062Z,11.60
2023-01-06T00:51:49.936Z,11.70
2023-01-06T00:52:01.776Z,11.70
2023-01-06T00:52:13.624Z,11.70
2023-01-06T00:52:25.407Z,11.70
2023-01-06T00:52:37.215Z,11.60
2023-01-06T00:52:49.148Z,11.70
2023-01-06T00:53:01.011Z,11.60
2023-01-06T00:53:12.861Z,11.60
2023-01-06T00:53:24.581Z,11.60
2023-01-06T00:53:36.370Z,11.60
2023-01-06T00:53:48.109Z,11.60
2023-01-06T00:54:00.180Z,11.60
2023-01-06T00:54:12.983Z,11.60
2023-01-06T00:54:24.875Z,11.60
2023-01-06T00:54:39.393Z,11.60
2023-01-06T00:54:51.149Z,11.60
2023-01-06T00:55:02.977Z,11.60
2023-01-06T00:55:14.915Z,11.60
2023-01-06T00:55:26.664Z,11.60
2023-01-06T00:55:38.420Z,11.60
2023-01-06T00:55:50.159Z,11.60
2023-01-06T00:56:02.146Z,11.60
2023-01-06T00:56:14.072Z,11.60
2023-01-06T00:56:25.904Z,11.60
2023-01-06T00:56:38.603Z,11.60
2023-01-06T00:56:51.192Z,11.60
2023-01-06T00:57:03.017Z,11.60
2023-01-06T00:57:14.792Z,11.60
2023-01-06T00:57:26.600Z,11.60
2023-01-06T00:57:39.438Z,11.60
2023-01-06T00:57:52.882Z,11.60
2023-01-06T00:58:04.728Z,11.60
2023-01-06T00:58:16.434Z,11.60
2023-01-06T00:58:31.560Z,11.60
2023-01-06T00:58:43.273Z,11.60
2023-01-06T00:58:54.990Z,11.60
2023-01-06T00:59:07.004Z,11.60
2023-01-06T00:59:20.819Z,11.60
2023-01-06T00:59:32.641Z,11.60
2023-01-06T00:59:44.410Z,11.60
2023-01-06T00:59:56.184Z,11.60
2023-01-06T01:00:09.173Z,11.60
2023-01-06T01:00:21.210Z,11.60
2023-01-06T01:00:33.108Z,11.60
2023-01-06T01:00:45.004Z,11.60
2023-01-06T01:00:56.784Z,11.60
2023-01-06T01:01:09.206Z,11.60
2023-01-06T01:01:21.155Z,11.60
2023-01-06T01:01:34.024Z,11.60
2023-01-06T01:01:46.484Z,11.70
2023-01-06T01:01:58.399Z,11.60
2023-01-06T01:02:10.257Z,11.70
2023-01-06T01:02:22.333Z,11.70
2023-01-06T01:02:34.266Z,11.70
2023-01-06T01:02:46.154Z,11.70
2023-01-06T01:02:57.981Z,11.70
2023-01-06T01:03:09.874Z,11.70
2023-01-06T01:03:22.135Z,11.70
2023-01-06T01:03:34.494Z,11.70
2023-01-06T01:03:46.226Z,11.70
2023-01-06T01:03:58.029Z,11.70
2023-01-06T01:04:10.092Z,11.70
2023-01-06T01:04:22.101Z,11.70
2023-01-06T01:04:35.080Z,11.70
2023-01-06T01:04:46.848Z,11.70
2023-01-06T01:04:58.663Z,11.70
2023-01-06T01:05:10.692Z,11.70
2023-01-06T01:05:22.579Z,11.70
2023-01-06T01:05:34.353Z,11.70
2023-01-06T01:05:46.133Z,11.70
2023-01-06T01:06:01.783Z,11.70
2023-01-06T01:06:13.576Z,11.70
2023-01-06T01:06:25.415Z,11.70
2023-01-06T01:06:37.498Z,11.80
2023-01-06T01:06:49.644Z,11.70
2023-01-06T01:07:01.618Z,11.70
2023-01-06T01:07:13.472Z,11.70
2023-01-06T01:07:25.272Z,11.70
2023-01-06T01:07:37.055Z,11.70
2023-01-06T01:07:48.759Z,11.70
2023-01-06T01:08:00.553Z,11.70
2023-01-06T01:08:12.326Z,11.80
2023-01-06T01:08:24.091Z,11.70
2023-01-06T01:08:35.831Z,11.70
2023-01-06T01:08:47.628Z,11.80
2023-01-06T01:09:00.130Z,11.70
2023-01-06T01:09:26.505Z,11.70
2023-01-06T01:09:38.264Z,11.70
2023-01-06T01:09:50.068Z,11.70
2023-01-06T01:10:02.031Z,11.80
2023-01-06T01:10:13.749Z,11.80
2023-01-06T01:10:25.525Z,11.70
2023-01-06T01:10:37.376Z,11.70
2023-01-06T01:10:49.117Z,11.80
2023-01-06T01:11:05.284Z,11.80
2023-01-06T01:11:37.066Z,11.70
2023-01-06T01:12:07.890Z,11.80
2023-01-06T01:12:19.689Z,11.70
2023-01-06T01:12:31.512Z,11.70
2023-01-06T01:12:43.274Z,11.70
2023-01-06T01:12:55.033Z,11.80
2023-01-06T01:13:06.747Z,11.80
2023-01-06T01:13:18.647Z,11.80
2023-01-06T01:13:30.434Z,11.80
2023-01-06T01:13:42.172Z,11.70
2023-01-06T01:13:53.970Z,11.80
2023-01-06T01:14:06.035Z,11.70
2023-01-06T01:14:18.676Z,11.70
2023-01-06T01:14:30.467Z,11.80
2023-01-06T01:14:47.462Z,11.80
2023-01-06T01:14:59.209Z,11.80
2023-01-06T01:15:11.228Z,11.80
2023-01-06T01:15:22.942Z,11.80
2023-01-06T01:15:34.712Z,11.80
2023-01-06T01:15:46.539Z,11.80
2023-01-06T01:16:02.924Z,11.80
2023-01-06T01:16:14.994Z,11.70
2023-01-06T01:16:26.797Z,11.70
2023-01-06T01:16:39.905Z,11.70
2023-01-06T01:16:51.775Z,11.70
2023-01-06T01:17:03.625Z,11.70
2023-01-06T01:17:20.569Z,11.70
2023-01-06T01:17:32.771Z,11.70
2023-01-06T01:17:44.588Z,11.70
2023-01-06T01:17:56.345Z,11.70
2023-01-06T01:18:08.112Z,11.70
2023-01-06T01:18:19.867Z,11.70
2023-01-06T01:18:31.657Z,11.70
2023-01-06T01:18:43.433Z,11.70
2023-01-06T01:18:55.292Z,11.60
2023-01-06T01:19:07.364Z,11.60
2023-01-06T01:19:19.652Z,11.70
2023-01-06T01:19:31.624Z,11.60
2023-01-06T01:19:43.413Z,11.60
2023-01-06T01:19:55.889Z,11.60
2023-01-06T01:20:08.548Z,11.60
2023-01-06T01:20:20.315Z,11.60
2023-01-06T01:20:32.112Z,11.60
2023-01-06T01:20:46.095Z,11.60
2023-01-06T01:20:57.814Z,11.60
2023-01-06T01:21:09.583Z,11.60
2023-01-06T01:21:21.431Z,11.70
2023-01-06T01:21:33.228Z,11.60
2023-01-06T01:21:44.959Z,11.70
2023-01-06T01:21:57.039Z,11.60
2023-01-06T01:22:09.171Z,11.70
2023-01-06T01:22:21.661Z,11.60
2023-01-06T01:22:33.456Z,11.70
2023-01-06T01:22:45.178Z,11.60
2023-01-06T01:22:56.987Z,11.60
2023-01-06T01:23:08.699Z,11.60
2023-01-06T01:23:21.092Z,11.60
2023-01-06T01:23:32.876Z,11.60
2023-01-06T01:23:44.618Z,11.60
2023-01-06T01:23:56.393Z,11.60
2023-01-06T01:24:08.352Z,11.60
2023-01-06T01:24:20.441Z,11.60
2023-01-06T01:24:32.239Z,11.70
2023-01-06T01:24:44.089Z,11.60
2023-01-06T01:24:55.923Z,11.60
2023-01-06T01:25:08.045Z,11.60
2023-01-06T01:25:19.815Z,11.60
2023-01-06T01:25:31.576Z,11.70
2023-01-06T01:25:43.336Z,11.60
2023-01-06T01:25:56.053Z,11.60
2023-01-06T01:26:07.839Z,11.60
2023-01-06T01:26:19.627Z,11.60
2023-01-06T01:26:31.475Z,11.60
2023-01-06T01:26:43.193Z,11.60
2023-01-06T01:26:54.972Z,11.60
2023-01-06T01:27:06.896Z,11.60
2023-01-06T01:27:19.252Z,11.60
2023-01-06T01:27:30.985Z,11.60
2023-01-06T01:27:42.776Z,11.60
2023-01-06T01:27:54.474Z,11.60
2023-01-06T01:28:07.125Z,11.60
2023-01-06T01:28:18.914Z,11.60
2023-01-06T01:28:30.675Z,11.60
2023-01-06T01:28:42.441Z,11.60
2023-01-06T01:28:54.153Z,11.60
2023-01-06T01:29:05.938Z,11.60
2023-01-06T01:29:18.230Z,11.60
2023-01-06T01:29:30.059Z,11.60
2023-01-06T01:29:41.787Z,11.60
2023-01-06T01:29:53.532Z,11.60
2023-01-06T01:30:05.883Z,11.60
2023-01-06T01:30:17.751Z,11.60
2023-01-06T01:30:29.452Z,11.60
2023-01-06T01:30:41.180Z,11.60
2023-01-06T01:31:02.112Z,11.60
2023-01-06T01:31:15.869Z,11.60
2023-01-06T01:31:27.822Z,11.60
2023-01-06T01:31:39.798Z,11.60
2023-01-06T01:31:51.502Z,11.60
2023-01-06T01:32:03.269Z,11.60
2023-01-06T01:32:15.030Z,11.60
2023-01-06T01:32:26.913Z,11.60
2023-01-06T01:32:38.636Z,11.60
2023-01-06T01:32:50.426Z,11.60
2023-01-06T01:33:02.193Z,11.60
2023-01-06T01:33:14.011Z,11.60
2023-01-06T01:33:25.768Z,11.60
2023-01-06T01:33:38.220Z,11.60
2023-01-06T01:33:50.023Z,11.60
2023-01-06T01:34:02.005Z,11.60
2023-01-06T01:34:14.820Z,11.60
2023-01-06T01:34:26.603Z,11.60
2023-01-06T01:34:38.549Z,11.60
2023-01-06T01:34:50.368Z,11.60
2023-01-06T01:35:02.225Z,11.60
2023-01-06T01:35:14.185Z,11.60
2023-01-06T01:35:25.893Z,11.60
2023-01-06T01:35:37.628Z,11.60
2023-01-06T01:35:49.363Z,11.60
2023-01-06T01:36:11.918Z,11.60
2023-01-06T01:36:23.741Z,11.60
2023-01-06T01:36:35.507Z,11.60
2023-01-06T01:36:47.839Z,11.60
2023-01-06T01:36:59.664Z,11.60
2023-01-06T01:37:11.399Z,11.60
2023-01-06T01:37:23.271Z,11.60
2023-01-06T01:37:35.308Z,11.60
2023-01-06T01:37:47.056Z,11.60
2023-01-06T01:37:58.834Z,11.60
2023-01-06T01:38:10.573Z,11.60
2023-01-06T01:38:22.372Z,11.60
2023-01-06T01:38:34.183Z,11.70
2023-01-06T01:38:46.038Z,11.70
2023-01-06T01:38:57.984Z,11.60
2023-01-06T01:39:10.741Z,11.70
2023-01-06T01:39:26.036Z,11.70
2023-01-06T01:39:37.827Z,11.70
2023-01-06T01:39:49.571Z,11.70
2023-01-06T01:40:01.340Z,11.70
2023-01-06T01:40:13.178Z,11.70
2023-01-06T01:40:24.893Z,11.70
2023-01-06T01:40:36.661Z,11.70
2023-01-06T01:40:49.200Z,11.70
2023-01-06T01:41:00.925Z,11.70
2023-01-06T01:41:17.812Z,11.70
2023-01-06T01:41:29.933Z,11.70
2023-01-06T01:41:41.970Z,11.70
2023-01-06T01:41:54.486Z,11.60
2023-01-06T01:42:06.673Z,11.60
2023-01-06T01:42:19.974Z,11.60
2023-01-06T01:42:31.782Z,11.60
2023-01-06T01:42:43.537Z,11.60
2023-01-06T01:42:55.317Z,11.60
2023-01-06T01:43:10.168Z,11.60
2023-01-06T01:43:21.920Z,11.50
2023-01-06T01:43:55.925Z,11.50
2023-01-06T01:44:45.081Z,11.50
2023-01-06T01:44:56.738Z,11.50
2023-01-06T01:45:17.502Z,11.50
2023-01-06T01:45:29.676Z,11.50
2023-01-06T01:45:41.806Z,11.50
2023-01-06T01:45:55.215Z,11.50
2023-01-06T01:46:07.069Z,11.50
2023-01-06T01:46:22.871Z,11.50
2023-01-06T01:46:39.995Z,11.50
2023-01-06T01:46:51.719Z,11.50
2023-01-06T01:47:03.480Z,11.50
2023-01-06T01:47:23.811Z,11.50
2023-01-06T01:48:01.099Z,11.50
2023-01-06T01:48:22.687Z,11.50
2023-01-06T01:48:34.582Z,11.50
2023-01-06T01:48:46.310Z,11.50
2023-01-06T01:49:04.073Z,11.50
2023-01-06T01:49:26.085Z,11.50
2023-01-06T01:49:39.369Z,11.50
2023-01-06T01:49:53.153Z,11.60
2023-01-06T01:50:17.105Z,11.60
2023-01-06T01:50:28.912Z,11.60
2023-01-06T01:50:44.645Z,11.60
2023-01-06T01:50:57.115Z,11.60
2023-01-06T01:51:11.168Z,11.60
2023-01-06T01:51:26.081Z,11.60
2023-01-06T01:51:40.119Z,11.60
2023-01-06T01:51:52.905Z,11.50
2023-01-06T01:52:04.851Z,11.50
2023-01-06T01:52:16.691Z,11.50
2023-01-06T01:52:28.710Z,11.50
2023-01-06T01:52:41.376Z,11.50
2023-01-06T01:52:55.122Z,11.50
2023-01-06T01:53:22.771Z,11.50
2023-01-06T01:53:37.890Z,11.50
2023-01-06T01:53:52.199Z,11.50
2023-01-06T01:54:05.864Z,11.50
2023-01-06T01:54:21.410Z,11.50
2023-01-06T01:54:33.241Z,11.40
2023-01-06T01:54:45.131Z,11.50
2023-01-06T01:54:56.946Z,11.40
2023-01-06T01:55:08.881Z,11.40
2023-01-06T01:55:20.665Z,11.40
2023-01-06T01:55:32.530Z,11.40
2023-01-06T01:55:44.257Z,11.40
2023-01-06T01:55:57.880Z,11.40
2023-01-06T01:56:11.136Z,11.30
2023-01-06T01:56:25.125Z,11.30
2023-01-06T01:56:37.487Z,11.30
2023-01-06T01:56:53.259Z,11.30
2023-01-06T01:57:07.285Z,11.30
2023-01-06T01:57:43.970Z,11.40
2023-01-06T01:58:22.312Z,11.30
2023-01-06T01:58:37.753Z,11.30
2023-01-06T01:58:54.445Z,11.30
2023-01-06T01:59:14.355Z,11.30
2023-01-06T01:59:28.547Z,11.40
2023-01-06T01:59:40.573Z,11.40
2023-01-06T01:59:52.392Z,11.40
2023-01-06T02:00:06.181Z,11.40
2023-01-06T02:00:18.062Z,11.40
2023-01-06T02:00:29.819Z,11.40
2023-01-06T02:00:43.027Z,11.40
2023-01-06T02:00:54.783Z,11.40
2023-01-06T02:01:07.072Z,11.40
2023-01-06T02:01:18.886Z,11.40
2023-01-06T02:01:30.842Z,11.40
2023-01-06T02:01:42.758Z,11.40
2023-01-06T02:01:54.720Z,11.40
2023-01-06T02:02:06.697Z,11.40
2023-01-06T02:02:18.714Z,11.40
2023-01-06T02:02:30.767Z,11.40
2023-01-06T02:02:43.003Z,11.40
2023-01-06T02:02:54.894Z,11.40
2023-01-06T02:03:06.711Z,11.40
2023-01-06T02:03:18.932Z,11.40
2023-01-06T02:03:30.751Z,11.40
2023-01-06T02:03:42.576Z,11.40
2023-01-06T02:03:54.302Z,11.40
2023-01-06T02:04:06.113Z,11.40
2023-01-06T02:04:17.993Z,11.30
2023-01-06T02:04:29.738Z,11.40
2023-01-06T02:04:42.377Z,11.40
2023-01-06T02:04:54.659Z,11.40
2023-01-06T02:05:06.647Z,11.40
2023-01-06T02:05:20.402Z,11.40
2023-01-06T02:05:32.256Z,11.40
2023-01-06T02:05:45.939Z,11.40
2023-01-06T02:06:01.624Z,11.40
2023-01-06T02:06:18.601Z,11.40
2023-01-06T02:06:30.505Z,11.40
2023-01-06T02:06:42.258Z,11.40
2023-01-06T02:06:54.159Z,11.40
2023-01-06T02:07:05.991Z,11.40
2023-01-06T02:07:18.168Z,11.40
2023-01-06T02:07:30.961Z,11.40
2023-01-06T02:07:42.689Z,11.40
2023-01-06T02:07:57.409Z,11.40
2023-01-06T02:08:53.927Z,11.40
2023-01-06T02:09:26.305Z,11.40
2023-01-06T02:09:44.081Z,11.40
2023-01-06T02:10:09.559Z,11.40
2023-01-06T02:10:22.383Z,11.40
2023-01-06T02:10:34.072Z,11.40
2023-01-06T02:10:45.806Z,11.30
2023-01-06T02:10:57.647Z,11.40
2023-01-06T02:11:09.547Z,11.30
2023-01-06T02:11:21.427Z,11.30
2023-01-06T02:11:34.062Z,11.30
2023-01-06T02:11:47.572Z,11.30
2023-01-06T02:11:59.351Z,11.40
2023-01-06T02:12:11.087Z,11.30
2023-01-06T02:12:22.829Z,11.30
2023-01-06T02:12:34.579Z,11.30
2023-01-06T02:12:47.287Z,11.30
2023-01-06T02:12:59.242Z,11.30
2023-01-06T02:13:11.064Z,11.30
2023-01-06T02:13:22.948Z,11.30
2023-01-06T02:13:35.801Z,11.30
2023-01-06T02:13:47.665Z,11.30
2023-01-06T02:14:12.490Z,11.30
2023-01-06T02:14:26.053Z,11.30
2023-01-06T02:14:37.903Z,11.40
2023-01-06T02:14:49.583Z,11.30
2023-01-06T02:15:01.681Z,11.30
2023-01-06T02:15:26.961Z,11.30
2023-01-06T02:15:38.723Z,11.30
2023-01-06T02:15:50.519Z,11.30
2023-01-06T02:16:23.931Z,11.30
2023-01-06T02:17:00.437Z,11.30
2023-01-06T02:17:27.481Z,11.40
2023-01-06T02:17:51.856Z,11.30
2023-01-06T02:18:23.449Z,11.40
2023-01-06T02:18:53.889Z,11.40
2023-01-06T02:19:37.403Z,11.40
2023-01-06T02:20:26.913Z,11.40
2023-01-06T02:20:56.941Z,11.40
2023-01-06T02:21:11.703Z,11.40
2023-01-06T02:21:42.049Z,11.40
2023-01-06T02:22:24.739Z,11.40
2023-01-06T02:22:58.483Z,11.50
2023-01-06T02:23:33.388Z,11.40
2023-01-06T02:24:25.126Z,11.40
2023-01-06T02:24:53.152Z,11.40
2023-01-06T02:25:32.143Z,11.40
2023-01-06T02:25:59.568Z,11.40
2023-01-06T02:26:45.998Z,11.40
2023-01-06T02:27:03.564Z,11.40
2023-01-06T02:27:37.071Z,11.40
2023-01-06T02:28:15.994Z,11.40
2023-01-06T02:28:36.976Z,11.40
2023-01-06T02:28:48.609Z,11.40
2023-01-06T02:29:31.872Z,11.30
2023-01-06T02:30:20.653Z,11.30
2023-01-06T02:31:10.230Z,11.30
2023-01-06T02:31:53.089Z,11.30
2023-01-06T02:32:07.836Z,11.30
2023-01-06T02:32:22.490Z,11.40
2023-01-06T02:32:59.253Z,11.30
2023-01-06T02:33:18.115Z,11.30
2023-01-06T02:33:47.666Z,11.30
2023-01-06T02:34:14.690Z,11.30
2023-01-06T02:34:43.560Z,11.30
2023-01-06T02:35:26.969Z,11.30
2023-01-06T02:35:45.755Z,11.40
2023-01-06T02:36:07.096Z,11.40
2023-01-06T02:36:22.307Z,11.30
2023-01-06T02:36:44.936Z,11.30
2023-01-06T02:37:26.429Z,11.30
2023-01-06T02:38:03.443Z,11.30
2023-01-06T02:38:33.174Z,11.40
2023-01-06T02:38:51.081Z,11.40
2023-01-06T02:39:05.435Z,11.40
2023-01-06T02:39:25.047Z,11.40
2023-01-06T02:39:58.523Z,11.40
2023-01-06T02:40:31.682Z,11.30
2023-01-06T02:41:02.154Z,11.30
2023-01-06T02:41:30.129Z,11.30
2023-01-06T02:41:43.496Z,11.30
2023-01-06T02:42:25.991Z,11.30
2023-01-06T02:43:10.441Z,11.30
2023-01-06T02:43:25.929Z,11.30
2023-01-06T02:44:00.075Z,11.30
2023-01-06T02:44:28.514Z,11.30
2023-01-06T02:44:44.219Z,11.30
2023-01-06T02:45:06.785Z,11.30
2023-01-06T02:45:27.647Z,11.30
2023-01-06T02:46:01.444Z,11.30
2023-01-06T02:46:15.948Z,11.30
2023-01-06T02:46:40.982Z,11.40
2023-01-06T02:47:04.758Z,11.40
2023-01-06T02:47:21.114Z,11.40
2023-01-06T02:47:36.126Z,11.40
2023-01-06T02:48:06.407Z,11.30
2023-01-06T02:48:24.005Z,11.40
2023-01-06T02:49:24.465Z,11.30
2023-01-06T02:51:01.663Z,11.40
2023-01-06T02:51:18.907Z,11.40
2023-01-06T02:51:44.486Z,11.40
2023-01-06T02:53:07.103Z,11.30
2023-01-06T02:53:52.490Z,11.40
2023-01-06T02:54:28.290Z,11.40
2023-01-06T02:54:48.064Z,11.40
2023-01-06T02:55:22.278Z,11.40
2023-01-06T02:55:45.592Z,11.30
2023-01-06T02:55:57.419Z,11.40
2023-01-06T02:56:09.213Z,11.40
2023-01-06T02:56:22.112Z,11.40
2023-01-06T02:56:36.990Z,11.40
2023-01-06T02:57:22.487Z,11.40
2023-01-06T02:57:42.363Z,11.40
2023-01-06T02:58:05.251Z,11.30
2023-01-06T02:58:38.942Z,11.40
2023-01-06T02:58:55.475Z,11.30
2023-01-06T02:59:14.366Z,11.30
2023-01-06T02:59:28.192Z,11.40
2023-01-06T02:59:43.953Z,11.40
2023-01-06T03:00:15.007Z,11.40
2023-01-06T03:00:34.661Z,11.40
2023-01-06T03:00:49.902Z,11.40
2023-01-06T03:01:06.688Z,11.40
2023-01-06T03:01:46.912Z,11.40
2023-01-06T03:01:58.712Z,11.40
2023-01-06T03:02:10.759Z,11.40
2023-01-06T03:02:22.937Z,11.40
2023-01-06T03:02:34.715Z,11.40
2023-01-06T03:02:49.499Z,11.40
2023-01-06T03:03:04.510Z,11.40
2023-01-06T03:03:18.051Z,11.40
2023-01-06T03:03:32.312Z,11.40
2023-01-06T03:03:45.771Z,11.40
2023-01-06T03:03:57.948Z,11.40
2023-01-06T03:04:21.027Z,11.40
2023-01-06T03:04:43.192Z,11.40
2023-01-06T03:04:55.101Z,11.40
2023-01-06T03:05:07.654Z,11.40
2023-01-06T03:05:19.442Z,11.40
2023-01-06T03:05:32.703Z,11.40
2023-01-06T03:05:45.342Z,11.40
2023-01-06T03:06:04.745Z,11.40
2023-01-06T03:06:19.042Z,11.40
2023-01-06T03:06:31.618Z,11.40
2023-01-06T03:06:45.125Z,11.40
2023-01-06T03:06:57.078Z,11.40
2023-01-06T03:07:08.913Z,11.40
2023-01-06T03:07:20.906Z,11.40
2023-01-06T03:07:32.754Z,11.40
2023-01-06T03:07:45.473Z,11.40
2023-01-06T03:07:57.274Z,11.40
2023-01-06T03:08:11.808Z,11.40
2023-01-06T03:08:26.435Z,11.40
2023-01-06T03:08:38.218Z,11.40
2023-01-06T03:08:50.060Z,11.50
2023-01-06T03:09:01.780Z,11.50
2023-01-06T03:09:15.483Z,11.40
2023-01-06T03:09:31.427Z,11.50
2023-01-06T03:09:43.108Z,11.50
2023-01-06T03:09:54.888Z,11.50
2023-01-06T03:10:06.963Z,11.50
2023-01-06T03:10:20.393Z,11.50
2023-01-06T03:10:32.279Z,11.50
2023-01-06T03:10:44.379Z,11.50
2023-01-06T03:10:56.585Z,11.50
2023-01-06T03:11:08.334Z,11.50
2023-01-06T03:11:20.093Z,11.50
2023-01-06T03:11:31.896Z,11.50
2023-01-06T03:11:43.713Z,11.50
2023-01-06T03:11:55.421Z,11.50
2023-01-06T03:12:31.060Z,11.50
2023-01-06T03:13:01.201Z,11.50
2023-01-06T03:13:23.465Z,11.50
2023-01-06T03:13:57.008Z,11.50
2023-01-06T03:14:13.865Z,11.50
2023-01-06T03:14:31.128Z,11.50
2023-01-06T03:14:47.690Z,11.50